Moran, MI (49760)

7:39 PM EST on December 04, 2016 (GMT -0500)
MesoWest | | Change Station
Active Advisory: Winter Weather Advisory

Elev 605 ft 46.01 °N, 85.01 °W | Updated 3 days ago

Snow
Snow
33 °F
Feels Like 28 °F
N
7
Wind Variable Wind from SSE
Gusts mph

Today
High -- | Low -- °F
--% Chance of Precip.
Yesterday
High -- | Low -- °F
Precip. -- in
Pressure 29.90 in
Visibility 1.2 miles
Clouds Overcast 300 ft
Windchill 28 °F
Dew Point 31 °F
Humidity 93%
Rainfall in
Snow Depth Not available.
8:04 AM 4:54 PM
Waxing Crescent, 26% visible
METAR KMCD 050015Z AUTO 16006KT 1 1/4SM -SN OVC003 00/00 A2990 RMK AO2 P0001 T00000000
Pressure 29.90 in
Visibility 1.2 miles
Clouds Overcast 300 ft
Windchill 28 °F
Dew Point 31 °F
Humidity 93%
Rainfall in
Snow Depth Not available.
8:04 AM 4:54 PM
Waxing Crescent, 26% visible
METAR KMCD 050015Z AUTO 16006KT 1 1/4SM -SN OVC003 00/00 A2990 RMK AO2 P0001 T00000000

10-Day Weather Forecast

Almanac

Astronomy

Dec. 04, 2016 Rise Set
Actual Time
Civil Twilight
Nautical Twilight
Astronomical Twilight
Moon
Length of Visible Light
Length of Day
Tomorrow will be .
, % of the Moon is Illuminated

Today's Extremes

State Highs State Lows

Community

WunderPhotos

Upload Photos

1,955,725 photos uploaded!

WunderBlog® & News

Nearby

Air Quality

  Air Quality AQ Index Pollutant
Not available.

Snow Depth

Station Depth Elevation

Earthquake Activity

City Distance Mag. Time & Date
Minimum magnitude displayed is 2.5.

Coastal Water Temperatures

Place Temperature

Stations

Nearby Weather Stations

Station Location Temp. Windchill Dew Point Humidity Wind Precip. Elev Updated Type
                   

Watches & Warnings

Winter Weather Advisory
Issued: 4:05 PM EST Dec. 4, 2016 – National Weather Service

... Winter Weather Advisory remains in effect until 4 am EST
Monday...

A Winter Weather Advisory remains in effect until 4 am EST
Monday.

* Expect snow to continue... diminishing after 4 am Monday.

* The heaviest snowfall rates will occur between 7 PM this
evening and 1 am Monday.

* Total snow accumulations of 3 to 5 inches are expected. Locally
higher.

* Reduced visibilities and slippery Road conditions.

Precautionary/preparedness actions...

A Winter Weather Advisory for snow means periods of snow will
cause primarily travel difficulties. Be prepared for snow covered
roads and limited visibilities... and use caution while driving.
For the latest Road conditions... go to the mdot website at
Michigan.Gov.


Smd